createdAt,value
2022-09-06T00:02:05.423Z,168.81752
2022-09-06T00:07:06.322Z,169.64103
2022-09-06T00:12:07.286Z,170.47059
2022-09-06T00:17:08.234Z,171.30627
2022-09-06T00:22:09.157Z,171.30627
2022-09-06T00:27:10.188Z,171.30627
2022-09-06T00:32:11.126Z,172.14815
2022-09-06T00:37:12.054Z,172.99628
2022-09-06T00:42:13.045Z,174.71161
2022-09-06T00:52:14.499Z,173.85075
2022-09-06T00:57:15.426Z,172.99628
2022-09-06T01:02:16.574Z,172.99628
2022-09-06T01:07:17.602Z,172.14815
2022-09-06T01:12:18.600Z,171.30627
2022-09-06T01:17:19.592Z,172.14815
2022-09-06T01:22:20.521Z,172.99628
2022-09-06T01:27:21.551Z,173.85075
2022-09-06T01:32:22.492Z,172.99628
2022-09-06T01:37:23.437Z,173.85075
2022-09-06T01:42:24.381Z,173.85075
2022-09-06T01:47:25.370Z,173.85075
2022-09-06T01:52:26.276Z,173.85075
2022-09-06T01:57:27.246Z,174.71161
2022-09-06T02:02:28.205Z,174.71161
2022-09-06T02:07:29.211Z,176.45283
2022-09-06T02:12:30.193Z,174.71161
2022-09-06T02:17:31.240Z,174.71161
2022-09-06T02:22:32.175Z,173.85075
2022-09-06T02:27:34.208Z,174.71161
2022-09-06T02:32:35.290Z,173.85075
2022-09-06T02:37:36.175Z,173.85075
2022-09-06T02:42:37.222Z,173.85075
2022-09-06T02:47:38.438Z,172.99628
2022-09-06T02:52:39.903Z,172.99628
2022-09-06T02:57:41.224Z,173.85075
2022-09-06T03:02:42.200Z,172.99628
2022-09-06T03:07:43.130Z,172.99628
2022-09-06T03:12:44.024Z,172.99628
2022-09-06T03:17:45.075Z,172.99628
2022-09-06T03:22:46.035Z,173.85075
2022-09-06T03:27:46.972Z,172.99628
2022-09-06T03:32:47.950Z,173.85075
2022-09-06T03:37:48.875Z,172.99628
2022-09-06T03:42:49.774Z,172.99628
2022-09-06T03:47:50.692Z,172.99628
2022-09-06T03:52:51.621Z,172.99628
2022-09-06T03:57:53.459Z,172.99628
2022-09-06T04:02:58.604Z,172.99628
2022-09-06T04:08:02.100Z,173.85075
2022-09-06T04:13:03.047Z,172.99628
2022-09-06T04:18:08.558Z,173.85075
2022-09-06T04:23:10.698Z,173.85075
2022-09-06T04:28:11.696Z,174.71161
2022-09-06T04:33:12.579Z,173.85075
2022-09-06T04:38:13.497Z,174.71161
2022-09-06T04:43:14.449Z,173.85075
2022-09-06T04:48:15.342Z,172.99628
2022-09-06T04:53:16.258Z,172.99628
2022-09-06T04:58:17.273Z,172.14815
2022-09-06T05:03:18.174Z,171.30627
2022-09-06T05:08:19.134Z,172.14815
2022-09-06T05:13:20.119Z,171.30627
2022-09-06T05:18:21.037Z,171.30627
2022-09-06T05:23:21.952Z,172.14815
2022-09-06T05:28:23.061Z,172.14815
2022-09-06T05:33:23.976Z,173.85075
2022-09-06T05:38:28.114Z,172.14815
2022-09-06T05:43:30.613Z,173.85075
2022-09-06T05:48:36.699Z,173.85075
2022-09-06T05:53:38.123Z,172.99628
2022-09-06T05:58:40.074Z,172.14815
2022-09-06T06:03:41.213Z,170.47059
2022-09-06T06:08:42.139Z,171.30627
2022-09-06T06:13:43.059Z,170.47059
2022-09-06T06:18:46.702Z,170.47059
2022-09-06T06:23:49.785Z,170.47059
2022-09-06T06:28:50.724Z,169.64103
2022-09-06T06:33:51.653Z,169.64103
2022-09-06T06:38:52.573Z,169.64103
2022-09-06T06:43:53.509Z,168.81752
2022-09-06T06:48:55.034Z,168.0
2022-09-06T06:53:56.261Z,168.0
2022-09-06T06:58:57.188Z,165.58273
2022-09-06T07:03:58.119Z,164.0
2022-09-06T07:08:59.040Z,164.78853
2022-09-06T07:14:00.031Z,165.58273
2022-09-06T07:19:01.323Z,164.78853
2022-09-06T07:24:05.880Z,164.78853
2022-09-06T07:29:07.674Z,164.78853
2022-09-06T07:34:08.649Z,164.78853
2022-09-06T07:39:09.557Z,162.43972
2022-09-06T07:44:10.461Z,167.18841
2022-09-06T07:49:11.386Z,163.21708
2022-09-06T07:54:29.866Z,165.58273
2022-09-06T07:59:31.964Z,164.0
2022-09-06T08:04:32.946Z,161.66784
2022-09-06T08:09:34.486Z,161.66784
2022-09-06T08:14:35.562Z,161.66784
2022-09-06T08:19:36.536Z,160.90141
2022-09-06T08:24:37.487Z,160.90141
2022-09-06T08:29:38.510Z,160.14035
2022-09-06T08:34:39.423Z,160.14035
2022-09-06T08:39:40.975Z,160.90141
2022-09-06T08:44:58.103Z,159.38462
2022-09-06T08:49:59.615Z,158.63415
2022-09-06T08:55:00.535Z,159.38462
2022-09-06T09:00:01.520Z,157.14879
2022-09-06T09:05:02.445Z,153.52381
2022-09-06T09:10:03.379Z,152.81356
2022-09-06T09:15:04.326Z,153.52381
2022-09-06T09:20:05.233Z,154.9589
2022-09-06T09:25:06.294Z,153.52381
2022-09-06T09:35:38.270Z,151.40741
2022-09-06T09:40:39.195Z,152.10811
2022-09-06T09:45:40.401Z,152.81356
2022-09-06T09:50:41.594Z,152.10811
2022-09-06T09:55:42.549Z,153.52381
2022-09-06T10:00:43.566Z,154.9589
2022-09-06T10:05:44.607Z,157.88889
2022-09-06T10:10:45.514Z,156.41379
2022-09-06T10:15:46.634Z,154.9589
2022-09-06T10:20:47.682Z,154.23891
2022-09-06T10:25:49.712Z,154.23891
2022-09-06T10:30:51.068Z,156.41379
2022-09-06T10:35:52.165Z,154.9589
2022-09-06T10:40:53.114Z,155.68385
2022-09-06T10:45:54.201Z,154.9589
2022-09-06T10:50:55.123Z,153.52381
2022-09-06T10:55:58.724Z,153.52381
2022-09-06T11:06:03.039Z,154.23891
2022-09-06T11:11:04.010Z,156.41379
2022-09-06T11:16:05.120Z,153.52381
2022-09-06T11:21:06.123Z,154.23891
2022-09-06T11:26:13.594Z,153.52381
2022-09-06T11:37:14.204Z,152.81356
2022-09-06T11:42:16.458Z,154.9589
2022-09-06T11:47:17.489Z,154.23891
2022-09-06T11:52:20.341Z,152.81356
2022-09-06T11:57:21.327Z,154.23891
2022-09-06T12:02:22.450Z,152.81356
2022-09-06T12:07:23.542Z,152.81356
2022-09-06T12:12:24.511Z,152.10811
2022-09-06T12:17:25.426Z,154.23891
2022-09-06T12:22:26.455Z,152.81356
2022-09-06T12:27:27.519Z,150.71141
2022-09-06T12:32:28.471Z,150.71141
2022-09-06T12:37:29.500Z,151.40741
2022-09-06T12:42:30.443Z,152.10811
2022-09-06T12:47:31.549Z,149.33333
2022-09-06T12:52:32.616Z,149.33333
2022-09-06T13:02:34.290Z,147.97351
2022-09-06T13:07:35.871Z,149.33333
2022-09-06T13:12:37.007Z,148.65116
2022-09-06T13:17:38.084Z,147.30033
2022-09-06T13:22:39.129Z,148.65116
2022-09-06T13:27:40.259Z,148.65116
2022-09-06T13:37:42.098Z,148.65116
2022-09-06T13:47:43.580Z,146.63158
2022-09-06T13:58:07.858Z,146.63158
2022-09-06T14:03:08.944Z,147.30033
2022-09-06T14:08:10.582Z,148.65116
2022-09-06T14:13:12.260Z,149.33333
2022-09-06T14:23:14.023Z,152.81356
2022-09-06T14:28:15.094Z,152.10811
2022-09-06T14:38:16.613Z,148.65116
2022-09-06T14:43:17.590Z,148.65116
2022-09-06T14:48:18.597Z,147.97351
2022-09-06T14:53:39.301Z,147.97351
2022-09-06T14:58:41.471Z,148.65116
2022-09-06T15:03:42.435Z,150.02007
2022-09-06T15:18:45.054Z,146.63158
2022-09-06T15:23:46.122Z,148.65116
2022-09-06T15:28:47.030Z,149.33333
2022-09-06T15:38:48.736Z,146.63158
2022-09-06T15:53:50.698Z,145.96721
2022-09-06T15:58:51.665Z,146.63158
2022-09-06T16:08:53.136Z,147.30033
2022-09-06T16:23:55.065Z,147.30033
2022-09-06T16:28:56.045Z,147.30033
2022-09-06T16:33:57.263Z,148.65116
2022-09-06T16:38:59.122Z,147.97351
2022-09-06T16:49:00.539Z,149.33333
2022-09-06T16:54:01.691Z,148.65116
2022-09-06T17:04:08.188Z,151.40741
2022-09-06T17:09:09.205Z,150.71141
2022-09-06T17:14:10.212Z,150.02007
2022-09-06T17:19:11.396Z,149.33333
2022-09-06T17:24:12.485Z,149.33333
2022-09-06T17:44:14.946Z,150.02007
2022-09-06T17:49:15.924Z,150.02007
2022-09-06T17:54:17.315Z,150.02007
2022-09-06T17:59:18.231Z,150.71141
2022-09-06T18:04:19.181Z,151.40741
2022-09-06T18:09:20.137Z,151.40741
2022-09-06T18:14:21.147Z,151.40741
2022-09-06T18:19:22.168Z,151.40741
2022-09-06T18:29:38.902Z,152.81356
2022-09-06T18:34:39.819Z,153.52381
2022-09-06T18:39:40.833Z,154.9589
2022-09-06T18:44:41.863Z,154.9589
2022-09-06T18:49:44.333Z,155.68385
2022-09-06T18:54:45.551Z,157.88889
2022-09-06T18:59:46.531Z,156.41379
2022-09-06T19:04:47.689Z,157.88889
2022-09-06T19:09:49.187Z,157.14879
2022-09-06T19:15:05.157Z,157.14879
2022-09-06T19:20:06.137Z,157.14879
2022-09-06T19:25:07.092Z,157.14879
2022-09-06T19:30:08.169Z,157.88889
2022-09-06T19:35:09.340Z,157.14879
2022-09-06T19:40:10.376Z,156.41379
2022-09-06T19:45:11.474Z,156.41379
2022-09-06T19:50:12.403Z,156.41379
2022-09-06T19:55:13.552Z,156.41379
2022-09-06T20:00:14.617Z,157.14879
2022-09-06T20:05:15.648Z,157.14879
2022-09-06T20:10:16.762Z,157.14879
2022-09-06T20:15:17.846Z,157.14879
2022-09-06T20:20:18.953Z,157.14879
2022-09-06T20:25:19.894Z,157.14879
2022-09-06T20:30:21.014Z,157.14879
2022-09-06T20:35:22.088Z,157.14879
2022-09-06T20:40:23.123Z,157.88889
2022-09-06T20:45:24.286Z,157.88889
2022-09-06T20:50:25.199Z,157.88889
2022-09-06T20:55:26.110Z,158.63415
2022-09-06T21:00:27.139Z,158.63415
2022-09-06T21:05:28.058Z,158.63415
2022-09-06T21:10:29.189Z,160.14035
2022-09-06T21:15:30.204Z,159.38462
2022-09-06T21:20:31.197Z,159.38462
2022-09-06T21:25:32.995Z,160.14035
2022-09-06T21:30:35.627Z,158.63415
2022-09-06T21:35:36.664Z,159.38462
2022-09-06T21:40:37.686Z,160.14035
2022-09-06T21:45:38.689Z,160.90141
2022-09-06T21:50:39.680Z,160.90141
2022-09-06T21:55:40.684Z,160.90141
2022-09-06T22:06:20.992Z,161.66784
2022-09-06T22:11:22.728Z,161.66784
2022-09-06T22:16:26.448Z,162.43972
2022-09-06T22:21:27.438Z,161.66784
2022-09-06T22:26:32.323Z,164.0
2022-09-06T22:31:33.645Z,164.78853
2022-09-06T22:36:34.653Z,164.0
2022-09-06T22:41:35.638Z,164.78853
2022-09-06T22:46:36.697Z,164.0
2022-09-06T22:51:37.734Z,164.78853
2022-09-06T22:56:38.734Z,165.58273
2022-09-06T23:01:39.744Z,165.58273
2022-09-06T23:06:40.720Z,165.58273
2022-09-06T23:11:41.674Z,164.78853
2022-09-06T23:16:42.782Z,165.58273
2022-09-06T23:21:43.697Z,164.78853
2022-09-06T23:26:44.647Z,164.78853
2022-09-06T23:31:48.671Z,165.58273
2022-09-06T23:36:49.967Z,164.0
2022-09-06T23:41:51.694Z,164.78853
2022-09-06T23:46:53.118Z,164.78853
2022-09-06T23:51:59.736Z,164.0
2022-09-06T23:57:00.951Z,164.0
